createdAt,value
2019-03-15T00:00:26.307Z,36.17
2019-03-15T00:01:35.093Z,34.38
2019-03-15T00:02:40.410Z,35.43
2019-03-15T00:03:46.153Z,33.40
2019-03-15T00:04:50.707Z,29.48
2019-03-15T00:06:08.521Z,37.17
2019-03-15T00:07:10.843Z,34.65
2019-03-15T00:08:20.914Z,33.60
2019-03-15T00:09:25.049Z,34.10
2019-03-15T00:10:30.827Z,31.05
2019-03-15T00:11:36.174Z,31.02
2019-03-15T00:12:43.172Z,30.57
2019-03-15T00:13:48.792Z,32.30
2019-03-15T00:14:54.089Z,30.95
2019-03-15T00:15:59.799Z,32.10
2019-03-15T00:17:07.242Z,31.37
2019-03-15T00:18:14.516Z,27.80
2019-03-15T00:19:18.782Z,32.93
2019-03-15T00:20:24.415Z,33.00
2019-03-15T00:21:33.376Z,28.10
2019-03-15T00:22:42.582Z,31.35
2019-03-15T00:23:46.708Z,32.05
2019-03-15T00:24:50.774Z,30.12
2019-03-15T00:25:58.463Z,30.43
2019-03-15T00:27:04.200Z,27.22
2019-03-15T00:28:17.905Z,29.72
2019-03-15T00:29:23.979Z,28.30
2019-03-15T00:30:28.327Z,32.13
2019-03-15T00:31:32.420Z,27.37
2019-03-15T00:32:39.141Z,30.52
2019-03-15T00:33:43.303Z,26.52
2019-03-15T00:34:51.285Z,28.90
2019-03-15T00:35:55.469Z,28.12
2019-03-15T00:37:01.250Z,28.32
2019-03-15T00:38:06.101Z,27.35
2019-03-15T00:39:10.204Z,26.95
2019-03-15T00:40:24.085Z,27.62
2019-03-15T00:41:31.616Z,29.30
2019-03-15T00:42:54.736Z,30.15
2019-03-15T00:44:09.400Z,27.58
2019-03-15T00:45:15.208Z,28.52
2019-03-15T00:46:24.964Z,30.92
2019-03-15T00:47:29.776Z,28.85
2019-03-15T00:48:37.143Z,26.85
2019-03-15T00:49:41.374Z,28.73
2019-03-15T00:50:45.532Z,29.55
2019-03-15T00:51:50.684Z,26.75
2019-03-15T00:52:54.839Z,25.27
2019-03-15T00:54:04.061Z,28.73
2019-03-15T00:55:08.498Z,25.48
2019-03-15T00:56:19.554Z,30.15
2019-03-15T00:58:28.815Z,27.55
2019-03-15T00:59:33.961Z,33.13
2019-03-15T01:00:41.848Z,29.63
2019-03-15T01:01:49.343Z,30.02
2019-03-15T01:02:56.512Z,30.88
2019-03-15T01:04:03.734Z,28.17
2019-03-15T01:05:12.411Z,29.63
2019-03-15T01:06:17.553Z,33.15
2019-03-15T01:07:22.708Z,32.42
2019-03-15T01:08:27.566Z,30.77
2019-03-15T01:09:35.019Z,31.65
2019-03-15T01:10:41.762Z,33.20
2019-03-15T01:11:49.055Z,32.90
2019-03-15T01:12:53.207Z,31.77
2019-03-15T01:13:57.489Z,28.85
2019-03-15T01:15:04.846Z,27.42
2019-03-15T01:16:09.170Z,32.95
2019-03-15T01:17:13.256Z,34.88
2019-03-15T01:18:18.429Z,35.68
2019-03-15T01:19:22.799Z,32.05
2019-03-15T01:20:27.636Z,28.73
2019-03-15T01:21:31.793Z,33.92
2019-03-15T01:22:36.000Z,32.20
2019-03-15T01:23:40.182Z,32.38
2019-03-15T01:24:52.567Z,32.23
2019-03-15T01:25:58.317Z,36.30
2019-03-15T01:27:02.486Z,31.77
2019-03-15T01:28:06.555Z,34.53
2019-03-15T01:29:10.742Z,32.75
2019-03-15T01:30:15.336Z,34.48
2019-03-15T01:31:19.552Z,37.30
2019-03-15T01:32:23.690Z,32.42
2019-03-15T01:33:28.468Z,33.48
2019-03-15T01:34:32.574Z,33.67
2019-03-15T01:35:39.787Z,36.60
2019-03-15T01:36:43.863Z,35.68
2019-03-15T01:37:49.313Z,35.80
2019-03-15T01:38:53.395Z,34.18
2019-03-15T01:39:58.666Z,34.15
2019-03-15T01:41:02.763Z,34.50
2019-03-15T01:42:06.864Z,36.85
2019-03-15T01:43:10.965Z,36.80
2019-03-15T01:44:15.219Z,35.28
2019-03-15T01:45:20.494Z,33.33
2019-03-15T01:46:24.564Z,31.95
2019-03-15T01:47:28.771Z,37.33
2019-03-15T01:48:33.578Z,38.45
2019-03-15T01:49:39.263Z,32.58
2019-03-15T01:50:43.465Z,34.00
2019-03-15T01:51:49.244Z,34.25
2019-03-15T01:52:54.039Z,36.28
2019-03-15T01:53:58.619Z,34.88
2019-03-15T01:55:02.787Z,37.20
2019-03-15T01:56:06.910Z,36.23
2019-03-15T01:57:10.991Z,34.78
2019-03-15T01:58:15.120Z,35.73
2019-03-15T01:59:19.219Z,36.90
2019-03-15T02:00:23.360Z,38.40
2019-03-15T02:01:27.580Z,36.20
2019-03-15T02:02:31.834Z,37.75
2019-03-15T02:03:37.545Z,34.48
2019-03-15T02:04:41.628Z,38.25
2019-03-15T02:05:46.878Z,38.15
2019-03-15T02:06:54.879Z,37.25
2019-03-15T02:07:59.079Z,34.95
2019-03-15T02:09:04.338Z,36.98
2019-03-15T02:10:09.499Z,33.53
2019-03-15T02:11:13.548Z,36.65
2019-03-15T02:12:17.795Z,35.33
2019-03-15T02:13:21.870Z,34.15
2019-03-15T02:14:26.019Z,33.35
2019-03-15T02:15:32.932Z,34.70
2019-03-15T02:16:37.084Z,33.35
2019-03-15T02:17:41.207Z,35.88
2019-03-15T02:18:45.269Z,34.73
2019-03-15T02:19:51.288Z,32.90
2019-03-15T02:20:55.926Z,36.13
2019-03-15T02:22:01.638Z,36.95
2019-03-15T02:23:05.938Z,34.03
2019-03-15T02:24:10.282Z,31.82
2019-03-15T02:25:14.326Z,33.85
2019-03-15T02:26:19.458Z,30.35
2019-03-15T02:27:24.143Z,33.67
2019-03-15T02:28:30.940Z,31.85
2019-03-15T02:29:38.041Z,32.48
2019-03-15T02:30:42.140Z,30.27
2019-03-15T02:31:47.779Z,34.13
2019-03-15T02:32:51.934Z,33.98
2019-03-15T02:33:57.799Z,33.95
2019-03-15T02:35:02.584Z,31.68
2019-03-15T02:36:08.326Z,29.65
2019-03-15T02:37:12.651Z,32.13
2019-03-15T02:38:16.737Z,32.73
2019-03-15T02:39:20.915Z,32.73
2019-03-15T02:40:26.678Z,32.35
2019-03-15T02:41:32.046Z,31.40
2019-03-15T02:42:36.486Z,33.80
2019-03-15T02:43:40.650Z,32.15
2019-03-15T02:44:44.899Z,31.37
2019-03-15T02:45:50.679Z,29.48
2019-03-15T02:46:55.284Z,32.08
2019-03-15T02:47:59.650Z,32.15
2019-03-15T02:49:04.597Z,29.60
2019-03-15T02:50:09.318Z,33.25
2019-03-15T02:51:13.486Z,31.48
2019-03-15T02:52:18.276Z,34.67
2019-03-15T02:53:22.473Z,26.87
2019-03-15T02:54:27.481Z,28.67
2019-03-15T02:55:32.668Z,33.08
2019-03-15T02:56:37.822Z,28.67
2019-03-15T02:57:41.915Z,29.35
2019-03-15T02:58:46.251Z,31.17
2019-03-15T02:59:50.358Z,31.85
2019-03-15T03:00:56.886Z,30.25
2019-03-15T03:02:01.604Z,31.60
2019-03-15T03:03:05.893Z,27.52
2019-03-15T03:04:10.699Z,28.27
2019-03-15T03:05:14.857Z,28.40
2019-03-15T03:06:19.128Z,28.15
2019-03-15T03:07:24.887Z,26.73
2019-03-15T03:08:29.098Z,27.65
2019-03-15T03:09:34.158Z,27.02
2019-03-15T03:10:40.036Z,28.83
2019-03-15T03:11:44.281Z,26.33
2019-03-15T03:12:48.491Z,27.10
2019-03-15T03:13:54.132Z,26.70
2019-03-15T03:14:58.461Z,28.92
2019-03-15T03:16:02.961Z,27.73
2019-03-15T03:17:07.198Z,26.40
2019-03-15T03:18:11.960Z,24.15
2019-03-15T03:19:16.158Z,25.62
2019-03-15T03:20:23.564Z,28.90
2019-03-15T03:21:30.371Z,27.37
2019-03-15T03:22:36.105Z,25.12
2019-03-15T03:23:52.034Z,25.40
2019-03-15T03:25:01.733Z,22.75
2019-03-15T03:26:07.127Z,26.05
2019-03-15T03:27:18.542Z,22.35
2019-03-15T03:28:48.548Z,21.33
2019-03-15T03:29:32.941Z,24.30
2019-03-15T03:30:37.754Z,27.13
2019-03-15T03:31:44.239Z,26.52
2019-03-15T03:32:50.488Z,24.82
2019-03-15T03:33:57.364Z,21.10
2019-03-15T03:35:01.572Z,23.52
2019-03-15T03:36:05.714Z,24.02
2019-03-15T03:37:09.989Z,21.02
2019-03-15T03:38:16.509Z,22.98
2019-03-15T03:39:20.824Z,22.35
2019-03-15T03:40:29.078Z,24.30
2019-03-15T03:41:34.075Z,22.50
2019-03-15T03:42:38.170Z,19.82
2019-03-15T03:43:42.356Z,22.00
2019-03-15T03:44:46.560Z,21.80
2019-03-15T03:45:50.658Z,21.15
2019-03-15T03:46:54.864Z,22.90
2019-03-15T03:47:59.072Z,19.02
2019-03-15T03:49:03.162Z,21.27
2019-03-15T03:50:09.538Z,22.70
2019-03-15T03:51:13.692Z,22.85
2019-03-15T03:52:17.932Z,22.70
2019-03-15T03:53:22.072Z,20.05
2019-03-15T03:54:26.526Z,21.05
2019-03-15T03:55:30.694Z,17.90
2019-03-15T03:56:34.838Z,19.23
2019-03-15T03:57:39.125Z,21.60
2019-03-15T03:58:43.263Z,21.60
2019-03-15T03:59:49.012Z,20.32
2019-03-15T04:00:54.310Z,21.42
2019-03-15T04:01:58.514Z,19.82
2019-03-15T04:03:02.763Z,20.68
2019-03-15T04:04:06.924Z,20.97
2019-03-15T04:05:11.211Z,21.68
2019-03-15T04:06:15.374Z,19.17
2019-03-15T04:07:21.087Z,20.85
2019-03-15T04:08:28.294Z,21.80
2019-03-15T04:09:32.310Z,19.62
2019-03-15T04:10:38.814Z,19.92
2019-03-15T04:11:54.640Z,18.45
2019-03-15T04:12:48.762Z,20.55
2019-03-15T04:13:52.978Z,20.92
2019-03-15T04:15:01.014Z,18.45
2019-03-15T04:16:05.272Z,20.77
2019-03-15T04:17:09.683Z,18.98
2019-03-15T04:18:13.843Z,20.45
2019-03-15T04:19:18.084Z,19.60
2019-03-15T04:20:22.188Z,21.75
2019-03-15T04:21:26.436Z,20.45
2019-03-15T04:22:32.768Z,19.55
2019-03-15T04:23:38.393Z,21.33
2019-03-15T04:24:44.375Z,21.27
2019-03-15T04:25:48.747Z,21.35
2019-03-15T04:26:53.005Z,18.98
2019-03-15T04:27:57.348Z,21.70
2019-03-15T04:29:01.451Z,21.75
2019-03-15T04:30:09.241Z,19.77
2019-03-15T04:31:13.467Z,20.95
2019-03-15T04:32:17.596Z,19.42
2019-03-15T04:33:21.660Z,18.40
2019-03-15T04:34:28.392Z,20.92
2019-03-15T04:35:31.619Z,19.70
2019-03-15T04:36:35.714Z,18.92
2019-03-15T04:37:39.876Z,19.12
2019-03-15T04:38:45.945Z,21.17
2019-03-15T04:39:49.780Z,16.85
2019-03-15T04:40:54.006Z,21.30
2019-03-15T04:41:58.162Z,21.90
2019-03-15T04:43:02.283Z,18.50
2019-03-15T04:44:07.519Z,18.42
2019-03-15T04:45:15.301Z,18.75
2019-03-15T04:46:18.660Z,19.57
2019-03-15T04:47:22.827Z,19.23
2019-03-15T04:48:27.078Z,19.82
2019-03-15T04:49:37.544Z,23.80
2019-03-15T04:50:59.768Z,19.82
2019-03-15T04:52:06.836Z,20.00
2019-03-15T04:53:16.078Z,17.92
2019-03-15T04:54:22.027Z,19.80
2019-03-15T04:55:26.235Z,18.50
2019-03-15T04:56:32.054Z,19.15
2019-03-15T04:57:37.600Z,20.48
2019-03-15T04:58:41.659Z,16.87
2019-03-15T04:59:51.304Z,19.90
2019-03-15T05:00:58.363Z,18.10
2019-03-15T05:02:03.956Z,22.17
2019-03-15T05:03:08.054Z,19.73
2019-03-15T05:04:13.442Z,17.48
2019-03-15T05:05:24.938Z,18.27
2019-03-15T05:06:29.758Z,16.55
2019-03-15T05:07:33.868Z,19.23
2019-03-15T05:08:39.584Z,20.00
2019-03-15T05:09:45.195Z,19.05
2019-03-15T05:10:50.389Z,19.15
2019-03-15T05:11:55.463Z,20.25
2019-03-15T05:13:02.294Z,19.32
2019-03-15T05:14:09.470Z,18.07
2019-03-15T05:15:17.824Z,18.32
2019-03-15T05:16:24.052Z,19.82
2019-03-15T05:17:30.773Z,19.57
2019-03-15T05:18:36.690Z,18.92
2019-03-15T05:19:42.510Z,20.45
2019-03-15T05:20:48.105Z,20.40
2019-03-15T05:21:52.273Z,19.10
2019-03-15T05:22:56.486Z,19.55
2019-03-15T05:24:05.047Z,19.35
2019-03-15T05:25:09.547Z,19.62
2019-03-15T05:26:15.472Z,18.98
2019-03-15T05:27:19.695Z,18.40
2019-03-15T05:28:27.037Z,19.85
2019-03-15T05:29:39.112Z,20.35
2019-03-15T05:30:46.373Z,18.60
2019-03-15T05:31:52.699Z,18.02
2019-03-15T05:32:58.452Z,20.68
2019-03-15T05:34:03.038Z,18.87
2019-03-15T05:35:08.823Z,22.17
2019-03-15T05:36:13.282Z,18.75
2019-03-15T05:37:20.534Z,20.32
2019-03-15T05:38:24.714Z,22.42
2019-03-15T05:39:29.203Z,23.12
2019-03-15T05:40:33.764Z,19.90
2019-03-15T05:41:37.922Z,21.37
2019-03-15T05:42:44.100Z,20.60
2019-03-15T05:43:48.312Z,19.80
2019-03-15T05:44:53.407Z,19.05
2019-03-15T05:45:59.918Z,18.15
2019-03-15T05:47:04.184Z,18.37
2019-03-15T05:48:08.338Z,17.42
2019-03-15T05:49:14.018Z,21.02
2019-03-15T05:50:19.362Z,20.10
2019-03-15T05:51:25.994Z,18.60
2019-03-15T05:52:30.226Z,18.62
2019-03-15T05:53:34.758Z,19.17
2019-03-15T05:54:40.120Z,17.32
2019-03-15T05:55:44.392Z,16.93
2019-03-15T05:56:50.315Z,18.75
2019-03-15T05:57:56.936Z,20.10
2019-03-15T05:59:02.009Z,19.95
2019-03-15T06:00:09.217Z,17.85
2019-03-15T06:01:15.979Z,18.37
2019-03-15T06:02:24.870Z,16.45
2019-03-15T06:03:32.267Z,19.25
2019-03-15T06:04:36.507Z,17.50
2019-03-15T06:05:45.984Z,18.45
2019-03-15T06:06:53.643Z,19.00
2019-03-15T06:07:58.641Z,36.50
2019-03-15T06:09:04.560Z,36.23
2019-03-15T06:10:12.598Z,18.80
2019-03-15T06:11:20.100Z,17.20
2019-03-15T06:12:23.479Z,18.12
2019-03-15T06:13:29.058Z,16.02
2019-03-15T06:14:33.185Z,15.60
2019-03-15T06:15:37.366Z,16.52
2019-03-15T06:16:43.070Z,16.93
2019-03-15T06:17:47.169Z,19.62
2019-03-15T06:18:56.621Z,17.05
2019-03-15T06:20:01.280Z,15.90
2019-03-15T06:21:05.593Z,19.62
2019-03-15T06:22:13.356Z,16.45
2019-03-15T06:23:18.794Z,17.32
2019-03-15T06:24:26.168Z,14.03
2019-03-15T06:25:30.357Z,17.70
2019-03-15T06:26:36.136Z,16.82
2019-03-15T06:27:40.328Z,17.77
2019-03-15T06:28:44.576Z,17.55
2019-03-15T06:29:53.670Z,14.43
2019-03-15T06:30:57.851Z,16.57
2019-03-15T06:32:03.415Z,17.87
2019-03-15T06:33:10.626Z,17.52
2019-03-15T06:34:29.732Z,16.12
2019-03-15T06:35:34.154Z,17.95
2019-03-15T06:36:39.627Z,19.00
2019-03-15T06:37:46.164Z,19.23
2019-03-15T06:39:02.710Z,18.75
2019-03-15T06:40:09.282Z,17.95
2019-03-15T06:41:14.558Z,17.15
2019-03-15T06:42:20.107Z,16.95
2019-03-15T06:43:24.411Z,16.55
2019-03-15T06:44:28.545Z,16.85
2019-03-15T06:45:32.829Z,17.02
2019-03-15T06:46:36.954Z,17.45
2019-03-15T06:47:41.200Z,18.87
2019-03-15T06:48:48.046Z,17.82
2019-03-15T06:49:54.608Z,18.70
2019-03-15T06:51:02.156Z,20.55
2019-03-15T06:52:07.934Z,20.50
2019-03-15T06:53:12.368Z,16.93
2019-03-15T06:54:16.635Z,19.95
2019-03-15T06:55:20.724Z,20.17
2019-03-15T06:56:24.918Z,19.65
2019-03-15T06:57:30.528Z,18.87
2019-03-15T06:58:35.074Z,19.73
2019-03-15T06:59:39.480Z,16.90
2019-03-15T07:00:44.803Z,19.30
2019-03-15T07:01:50.778Z,19.00
2019-03-15T07:02:55.148Z,19.50
2019-03-15T07:04:01.206Z,21.40
2019-03-15T07:05:11.839Z,20.50
2019-03-15T07:06:15.168Z,42.88
2019-03-15T07:07:21.402Z,22.10
2019-03-15T07:08:28.022Z,17.65
2019-03-15T07:09:33.429Z,19.37
2019-03-15T07:10:39.857Z,22.20
2019-03-15T07:11:45.706Z,19.67
2019-03-15T07:12:53.298Z,19.62
2019-03-15T07:13:59.733Z,20.20
2019-03-15T07:15:17.556Z,19.77
2019-03-15T07:16:21.346Z,18.42
2019-03-15T07:17:30.168Z,17.37
2019-03-15T07:18:35.582Z,17.12
2019-03-15T07:19:43.554Z,19.37
2019-03-15T07:20:50.392Z,18.30
2019-03-15T07:21:56.274Z,16.97
2019-03-15T07:23:03.300Z,17.52
2019-03-15T07:24:24.127Z,16.35
2019-03-15T07:25:17.191Z,19.45
2019-03-15T07:26:21.511Z,16.67
2019-03-15T07:27:27.227Z,17.50
2019-03-15T07:28:38.233Z,20.02
2019-03-15T07:29:55.814Z,16.77
2019-03-15T07:30:59.429Z,17.80
2019-03-15T07:32:11.138Z,17.52
2019-03-15T07:33:19.217Z,15.35
2019-03-15T07:34:26.742Z,16.87
2019-03-15T07:35:32.048Z,15.68
2019-03-15T07:36:37.966Z,13.80
2019-03-15T07:37:45.125Z,15.83
2019-03-15T07:38:49.444Z,16.42
2019-03-15T07:39:55.850Z,20.97
2019-03-15T07:41:00.009Z,15.28
2019-03-15T07:42:06.937Z,12.85
2019-03-15T07:43:12.290Z,14.95
2019-03-15T07:44:16.514Z,14.55
2019-03-15T07:45:20.804Z,18.80
2019-03-15T07:46:26.468Z,13.65
2019-03-15T07:47:31.998Z,13.30
2019-03-15T07:48:36.409Z,12.90
2019-03-15T07:49:42.460Z,12.37
2019-03-15T07:50:51.065Z,13.90
2019-03-15T07:51:55.252Z,14.65
2019-03-15T07:53:00.544Z,12.35
2019-03-15T07:54:06.313Z,19.70
2019-03-15T07:55:11.210Z,13.78
2019-03-15T07:56:16.192Z,19.37
2019-03-15T07:57:20.478Z,25.25
2019-03-15T07:58:24.702Z,14.30
2019-03-15T07:59:28.896Z,14.40
2019-03-15T08:00:34.841Z,13.90
2019-03-15T08:01:40.603Z,14.63
2019-03-15T08:02:44.887Z,15.10
2019-03-15T08:03:50.526Z,14.45
2019-03-15T08:04:57.011Z,17.32
2019-03-15T08:06:01.157Z,12.53
2019-03-15T08:07:09.621Z,23.98
2019-03-15T08:08:13.911Z,30.62
2019-03-15T08:09:18.928Z,15.43
2019-03-15T08:10:24.871Z,20.27
2019-03-15T08:11:29.282Z,16.07
2019-03-15T08:12:38.940Z,16.10
2019-03-15T08:13:43.257Z,32.38
2019-03-15T08:14:48.006Z,22.40
2019-03-15T08:15:52.137Z,13.30
2019-03-15T08:16:56.833Z,16.20
2019-03-15T08:18:05.369Z,13.30
2019-03-15T08:19:09.491Z,15.88
2019-03-15T08:20:14.899Z,15.90
2019-03-15T08:21:23.388Z,13.53
2019-03-15T08:22:30.581Z,28.40
2019-03-15T08:23:36.652Z,18.30
2019-03-15T08:24:51.410Z,21.90
2019-03-15T08:25:53.430Z,29.85
2019-03-15T08:27:00.258Z,16.55
2019-03-15T08:28:04.527Z,24.40
2019-03-15T08:29:12.124Z,21.85
2019-03-15T08:30:18.719Z,55.20
2019-03-15T08:31:30.096Z,21.52
2019-03-15T08:32:34.417Z,18.48
2019-03-15T08:33:38.547Z,21.05
2019-03-15T08:34:51.621Z,21.37
2019-03-15T08:35:51.565Z,20.62
2019-03-15T08:36:56.615Z,15.00
2019-03-15T08:38:00.755Z,17.00
2019-03-15T08:39:08.497Z,35.85
2019-03-15T08:40:16.268Z,66.40
2019-03-15T08:41:21.067Z,18.52
2019-03-15T08:42:25.370Z,23.12
2019-03-15T08:43:29.499Z,14.45
2019-03-15T08:44:33.701Z,14.18
2019-03-15T08:45:39.040Z,37.03
2019-03-15T08:46:43.260Z,25.17
2019-03-15T08:47:50.275Z,13.40
2019-03-15T08:48:55.911Z,27.27
2019-03-15T08:50:00.373Z,22.65
2019-03-15T08:51:10.309Z,26.55
2019-03-15T08:52:12.675Z,14.98
2019-03-15T08:53:17.675Z,18.85
2019-03-15T08:54:21.905Z,44.83
2019-03-15T08:55:30.617Z,26.65
2019-03-15T08:56:36.384Z,17.20
2019-03-15T08:57:40.521Z,24.60
2019-03-15T08:58:44.651Z,12.18
2019-03-15T08:59:56.802Z,29.20
2019-03-15T09:00:54.509Z,22.13
2019-03-15T09:01:58.557Z,23.05
2019-03-15T09:03:03.050Z,12.43
2019-03-15T09:04:07.192Z,11.57
2019-03-15T09:05:12.383Z,23.02
2019-03-15T09:06:16.502Z,17.25
2019-03-15T09:07:20.628Z,14.98
2019-03-15T09:08:24.699Z,10.90
2019-03-15T09:09:28.762Z,20.08
2019-03-15T09:10:32.892Z,12.68
2019-03-15T09:11:37.025Z,11.57
2019-03-15T09:12:41.153Z,15.03
2019-03-15T09:13:45.223Z,11.35
2019-03-15T09:14:49.309Z,13.08
2019-03-15T09:15:56.167Z,11.80
2019-03-15T09:17:04.969Z,17.57
2019-03-15T09:18:12.853Z,13.38
2019-03-15T09:19:17.160Z,14.65
2019-03-15T09:20:21.265Z,17.85
2019-03-15T09:21:25.434Z,24.05
2019-03-15T09:22:30.287Z,24.10
2019-03-15T09:23:35.950Z,15.55
2019-03-15T09:24:40.255Z,11.85
2019-03-15T09:25:44.312Z,13.13
2019-03-15T09:26:48.451Z,18.02
2019-03-15T09:27:52.615Z,14.87
2019-03-15T09:28:56.723Z,46.25
2019-03-15T09:30:00.771Z,37.67
2019-03-15T09:31:07.415Z,17.23
2019-03-15T09:32:10.594Z,29.02
2019-03-15T09:33:14.696Z,60.95
2019-03-15T09:34:18.761Z,23.90
2019-03-15T09:35:22.817Z,16.93
2019-03-15T09:36:29.969Z,32.13
2019-03-15T09:37:35.505Z,19.95
2019-03-15T09:38:39.594Z,32.53
2019-03-15T09:39:43.680Z,17.15
2019-03-15T09:40:47.895Z,36.05
2019-03-15T09:41:51.969Z,52.30
2019-03-15T09:42:59.647Z,24.72
2019-03-15T09:44:01.967Z,19.50
2019-03-15T09:45:08.959Z,18.60
2019-03-15T09:46:13.096Z,50.28
2019-03-15T09:47:17.360Z,33.58
2019-03-15T09:48:21.461Z,13.48
2019-03-15T09:49:25.629Z,15.15
2019-03-15T09:50:40.053Z,12.23
2019-03-15T09:51:35.517Z,12.98
2019-03-15T09:52:42.439Z,24.15
2019-03-15T09:53:49.099Z,15.15
2019-03-15T09:54:53.323Z,14.23
2019-03-15T09:55:57.471Z,16.35
2019-03-15T09:57:01.603Z,18.65
2019-03-15T09:58:07.658Z,11.48
2019-03-15T09:59:11.785Z,11.85
2019-03-15T10:00:17.945Z,13.53
2019-03-15T10:01:34.824Z,21.37
2019-03-15T10:02:30.965Z,17.55
2019-03-15T10:03:34.977Z,20.92
2019-03-15T10:04:39.156Z,11.50
2019-03-15T10:05:43.351Z,9.23
2019-03-15T10:06:47.466Z,10.38
2019-03-15T10:07:51.614Z,7.03
2019-03-15T10:08:55.665Z,10.58
2019-03-15T10:10:12.507Z,9.28
2019-03-15T10:11:05.609Z,6.55
2019-03-15T10:12:11.245Z,8.05
2019-03-15T10:13:15.393Z,8.93
2019-03-15T10:14:19.434Z,10.05
2019-03-15T10:15:26.148Z,8.88
2019-03-15T10:16:29.284Z,10.20
2019-03-15T10:17:33.403Z,8.35
2019-03-15T10:18:37.558Z,8.58
2019-03-15T10:19:41.620Z,12.00
2019-03-15T10:20:45.748Z,8.55
2019-03-15T10:21:51.296Z,8.85
2019-03-15T10:23:05.313Z,9.45
2019-03-15T10:24:08.126Z,11.35
2019-03-15T10:25:10.073Z,9.78
2019-03-15T10:26:15.125Z,12.45
2019-03-15T10:27:19.315Z,8.55
2019-03-15T10:28:29.418Z,11.97
2019-03-15T10:29:36.691Z,13.48
2019-03-15T10:30:41.204Z,9.38
2019-03-15T10:31:45.421Z,10.65
2019-03-15T10:32:49.719Z,11.10
2019-03-15T10:33:53.844Z,11.75
2019-03-15T10:34:58.032Z,10.38
2019-03-15T10:36:02.106Z,11.48
2019-03-15T10:37:06.486Z,12.30
2019-03-15T10:38:16.514Z,11.95
2019-03-15T10:39:19.295Z,14.78
2019-03-15T10:40:24.530Z,15.15
2019-03-15T10:41:28.603Z,13.30
2019-03-15T10:42:35.550Z,14.87
2019-03-15T10:43:41.268Z,17.40
2019-03-15T10:44:45.344Z,20.50
2019-03-15T10:45:49.490Z,16.85
2019-03-15T10:46:53.516Z,15.18
2019-03-15T10:47:57.590Z,15.08
2019-03-15T10:49:01.656Z,30.97
2019-03-15T10:50:08.829Z,32.55
2019-03-15T10:51:13.015Z,31.68
2019-03-15T10:52:17.111Z,27.20
2019-03-15T10:53:21.262Z,23.67
2019-03-15T10:54:28.545Z,20.40
2019-03-15T10:55:32.610Z,19.75
2019-03-15T10:56:36.809Z,33.20
2019-03-15T10:57:40.899Z,15.98
2019-03-15T10:58:46.593Z,14.85
2019-03-15T10:59:50.749Z,18.87
2019-03-15T11:00:55.953Z,17.50
2019-03-15T11:02:00.267Z,35.43
2019-03-15T11:03:04.570Z,20.52
2019-03-15T11:04:08.645Z,16.62
2019-03-15T11:05:16.200Z,19.42
2019-03-15T11:06:20.369Z,28.85
2019-03-15T11:07:24.467Z,20.30
2019-03-15T11:08:28.725Z,28.30
2019-03-15T11:09:35.903Z,19.27
2019-03-15T11:10:39.983Z,20.80
2019-03-15T11:11:45.611Z,32.75
2019-03-15T11:12:50.188Z,15.53
2019-03-15T11:13:56.182Z,15.03
2019-03-15T11:15:00.884Z,10.08
2019-03-15T11:16:04.997Z,12.03
2019-03-15T11:17:09.058Z,13.62
2019-03-15T11:18:13.133Z,15.13
2019-03-15T11:19:17.204Z,19.02
2019-03-15T11:20:21.329Z,12.85
2019-03-15T11:21:25.514Z,8.78
2019-03-15T11:22:29.568Z,21.52
2019-03-15T11:23:33.714Z,9.40
2019-03-15T11:24:39.433Z,7.87
2019-03-15T11:25:43.486Z,8.65
2019-03-15T11:26:47.763Z,13.08
2019-03-15T11:27:53.403Z,13.65
2019-03-15T11:28:57.498Z,12.53
2019-03-15T11:30:01.595Z,11.88
2019-03-15T11:31:05.637Z,10.45
2019-03-15T11:32:11.161Z,9.70
2019-03-15T11:33:15.314Z,8.40
2019-03-15T11:34:19.364Z,16.12
2019-03-15T11:35:28.283Z,13.88
2019-03-15T11:36:32.374Z,10.40
2019-03-15T11:37:37.972Z,11.18
2019-03-15T11:38:42.114Z,10.15
2019-03-15T11:39:47.894Z,16.60
2019-03-15T11:40:52.018Z,12.35
2019-03-15T11:41:56.145Z,10.70
2019-03-15T11:43:00.222Z,11.93
2019-03-15T11:44:04.405Z,8.53
2019-03-15T11:45:10.538Z,9.95
2019-03-15T11:46:16.658Z,9.35
2019-03-15T11:47:20.739Z,9.58
2019-03-15T11:48:27.537Z,14.80
2019-03-15T11:49:31.601Z,11.65
2019-03-15T11:50:35.829Z,12.03
2019-03-15T11:51:42.814Z,11.85
2019-03-15T11:52:48.366Z,7.92
2019-03-15T11:53:52.687Z,9.20
2019-03-15T11:54:56.971Z,11.55
2019-03-15T11:56:02.186Z,10.75
2019-03-15T11:57:06.561Z,19.10
2019-03-15T11:58:11.859Z,16.10
2019-03-15T11:59:18.505Z,12.82
2019-03-15T12:00:24.081Z,19.15
2019-03-15T12:01:28.209Z,8.68
2019-03-15T12:02:32.315Z,6.55
2019-03-15T12:03:36.376Z,8.05
2019-03-15T12:04:40.451Z,21.55
2019-03-15T12:05:44.593Z,14.53
2019-03-15T12:06:48.671Z,20.05
2019-03-15T12:07:52.726Z,20.97
2019-03-15T12:08:56.869Z,11.83
2019-03-15T12:10:00.976Z,13.30
2019-03-15T12:11:07.075Z,18.07
2019-03-15T12:12:11.741Z,23.77
2019-03-15T12:13:17.438Z,6.03
2019-03-15T12:14:23.327Z,12.98
2019-03-15T12:15:29.793Z,11.35
2019-03-15T12:16:33.905Z,9.63
2019-03-15T12:17:39.506Z,34.08
2019-03-15T12:18:45.117Z,20.82
2019-03-15T12:19:50.485Z,6.15
2019-03-15T12:20:54.575Z,30.72
2019-03-15T12:22:06.468Z,13.38
2019-03-15T12:23:09.067Z,12.03
2019-03-15T12:24:13.650Z,13.15
2019-03-15T12:25:17.838Z,27.27
2019-03-15T12:26:21.965Z,5.87
2019-03-15T12:27:26.151Z,10.78
2019-03-15T12:28:32.759Z,14.28
2019-03-15T12:29:37.394Z,7.87
2019-03-15T12:30:43.335Z,17.98
2019-03-15T12:31:48.872Z,13.03
2019-03-15T12:32:54.403Z,17.05
2019-03-15T12:33:58.695Z,10.30
2019-03-15T12:35:02.768Z,5.80
2019-03-15T12:36:10.386Z,7.67
2019-03-15T12:37:14.445Z,7.53
2019-03-15T12:38:18.565Z,8.48
2019-03-15T12:39:22.779Z,6.53
2019-03-15T12:40:29.285Z,6.90
2019-03-15T12:41:34.423Z,6.22
2019-03-15T12:42:40.989Z,9.35
2019-03-15T12:43:46.678Z,17.15
2019-03-15T12:44:52.489Z,14.83
2019-03-15T12:45:57.429Z,8.38
2019-03-15T12:47:01.583Z,10.13
2019-03-15T12:48:05.747Z,7.17
2019-03-15T12:49:09.759Z,5.53
2019-03-15T12:50:19.039Z,7.67
2019-03-15T12:51:31.999Z,16.90
2019-03-15T12:52:28.870Z,14.13
2019-03-15T12:53:33.011Z,8.35
2019-03-15T12:54:40.928Z,11.00
2019-03-15T12:55:45.092Z,18.15
2019-03-15T12:56:53.932Z,21.15
2019-03-15T12:57:55.059Z,15.80
2019-03-15T12:58:59.137Z,15.43
2019-03-15T13:00:03.877Z,9.48
2019-03-15T13:01:08.005Z,10.58
2019-03-15T13:02:12.065Z,8.45
2019-03-15T13:03:16.128Z,11.53
2019-03-15T13:04:20.250Z,13.35
2019-03-15T13:05:24.405Z,13.58
2019-03-15T13:06:28.499Z,6.62
2019-03-15T13:07:34.229Z,16.80
2019-03-15T13:08:38.322Z,15.50
2019-03-15T13:09:45.365Z,9.50
2019-03-15T13:10:49.655Z,8.78
2019-03-15T13:11:55.443Z,12.88
2019-03-15T13:12:59.765Z,13.38
2019-03-15T13:14:05.188Z,18.65
2019-03-15T13:15:13.658Z,11.80
2019-03-15T13:16:17.735Z,7.10
2019-03-15T13:17:21.896Z,7.90
2019-03-15T13:18:30.205Z,3.60
2019-03-15T13:19:34.549Z,5.67
2019-03-15T13:20:38.695Z,4.75
2019-03-15T13:21:43.064Z,4.78
2019-03-15T13:22:47.245Z,4.90
2019-03-15T13:23:52.965Z,6.15
2019-03-15T13:24:57.144Z,7.78
2019-03-15T13:26:02.784Z,9.15
2019-03-15T13:27:07.980Z,5.22
2019-03-15T13:28:12.378Z,6.45
2019-03-15T13:29:16.424Z,5.78
2019-03-15T13:30:20.563Z,5.47
2019-03-15T13:31:26.164Z,9.95
2019-03-15T13:32:33.113Z,13.22
2019-03-15T13:33:37.199Z,7.42
2019-03-15T13:34:41.342Z,6.22
2019-03-15T13:35:45.766Z,10.23
2019-03-15T13:36:49.835Z,6.03
2019-03-15T13:37:54.113Z,6.80
2019-03-15T13:38:58.264Z,5.12
2019-03-15T13:40:06.709Z,11.68
2019-03-15T13:41:10.936Z,31.62
2019-03-15T13:42:15.847Z,24.60
2019-03-15T13:43:19.969Z,10.28
2019-03-15T13:44:26.315Z,3.92
2019-03-15T13:45:33.368Z,4.40
2019-03-15T13:46:41.656Z,5.75
2019-03-15T13:47:51.441Z,5.15
2019-03-15T13:49:02.472Z,6.85
2019-03-15T13:51:28.327Z,9.58
2019-03-15T13:52:37.227Z,15.95
2019-03-15T13:53:51.448Z,6.50
2019-03-15T13:54:55.870Z,12.93
2019-03-15T13:56:02.932Z,6.78
2019-03-15T13:57:20.162Z,13.30
2019-03-15T13:58:15.875Z,9.48
2019-03-15T13:59:21.623Z,7.95
2019-03-15T14:00:30.390Z,5.30
2019-03-15T14:01:41.185Z,5.70
2019-03-15T14:02:41.510Z,5.47
2019-03-15T14:03:48.714Z,3.05
2019-03-15T14:05:02.902Z,2.08
2019-03-15T14:06:08.888Z,2.95
2019-03-15T14:07:13.149Z,3.17
2019-03-15T14:08:19.740Z,3.45
2019-03-15T14:09:23.737Z,5.05